createdAt,value
2023-02-24T00:02:01.212Z,97.04
2023-02-24T00:04:28.859Z,97.42
2023-02-24T00:06:55.365Z,97.41
2023-02-24T00:09:23.239Z,98.91
2023-02-24T00:11:57.716Z,99.46
2023-02-24T00:14:25.255Z,100.00
2023-02-24T00:16:52.498Z,100.00
2023-02-24T00:19:20.741Z,99.40
2023-02-24T00:21:47.472Z,99.15
2023-02-24T00:24:14.388Z,98.93
2023-02-24T00:26:41.029Z,98.63
2023-02-24T00:29:08.946Z,98.01
2023-02-24T00:31:39.573Z,98.76
2023-02-24T00:34:06.837Z,98.09
2023-02-24T00:36:34.028Z,98.15
2023-02-24T00:39:01.979Z,97.95
2023-02-24T00:41:32.368Z,96.87
2023-02-24T00:44:08.409Z,96.72
2023-02-24T00:46:39.310Z,97.33
2023-02-24T00:49:07.705Z,97.32
2023-02-24T00:51:41.122Z,97.62
2023-02-24T00:54:08.392Z,98.32
2023-02-24T00:56:34.985Z,97.86
2023-02-24T00:59:02.500Z,97.30
2023-02-24T01:01:31.850Z,97.74
2023-02-24T01:04:01.629Z,98.11
2023-02-24T01:06:29.300Z,97.89
2023-02-24T01:08:57.721Z,97.55
2023-02-24T01:11:44.075Z,98.15
2023-02-24T01:14:13.661Z,98.29
2023-02-24T01:16:44.738Z,98.59
2023-02-24T01:19:12.528Z,97.90
2023-02-24T01:21:40.833Z,98.56
2023-02-24T01:24:07.331Z,98.96
2023-02-24T01:26:34.698Z,98.80
2023-02-24T01:29:01.376Z,98.61
2023-02-24T01:31:28.795Z,98.85
2023-02-24T01:33:55.574Z,99.03
2023-02-24T01:36:23.797Z,99.00
2023-02-24T01:38:50.291Z,99.16
2023-02-24T01:41:18.583Z,100.00
2023-02-24T01:44:12.288Z,100.00
2023-02-24T01:46:39.828Z,99.95
2023-02-24T01:49:13.356Z,99.62
2023-02-24T01:51:45.441Z,99.57
2023-02-24T01:54:13.939Z,98.31
2023-02-24T01:56:41.392Z,98.66
2023-02-24T01:59:09.221Z,99.18
2023-02-24T02:01:43.035Z,99.43
2023-02-24T02:04:20.470Z,98.77
2023-02-24T02:06:48.208Z,99.23
2023-02-24T02:09:15.621Z,99.57
2023-02-24T02:11:42.655Z,99.55
2023-02-24T02:14:09.713Z,99.79
2023-02-24T02:16:56.514Z,100.00
2023-02-24T02:19:35.846Z,100.00
2023-02-24T02:22:08.265Z,100.00
2023-02-24T02:24:50.211Z,100.00
2023-02-24T02:27:35.088Z,100.00
2023-02-24T02:30:06.277Z,99.59
2023-02-24T02:32:38.824Z,99.50
2023-02-24T02:35:11.900Z,100.00
2023-02-24T02:37:48.276Z,100.00
2023-02-24T02:40:23.375Z,100.00
2023-02-24T02:43:02.127Z,100.00
2023-02-24T02:45:34.030Z,100.00
2023-02-24T02:48:15.606Z,100.00
2023-02-24T02:50:46.423Z,100.00
2023-02-24T02:53:24.567Z,100.00
2023-02-24T02:55:54.639Z,100.00
2023-02-24T02:58:26.178Z,100.00
2023-02-24T03:01:02.629Z,100.00
2023-02-24T03:03:32.238Z,100.00
2023-02-24T03:06:12.047Z,100.00
2023-02-24T03:08:40.181Z,100.00
2023-02-24T03:11:11.283Z,100.00
2023-02-24T03:13:41.108Z,100.00
2023-02-24T03:16:09.070Z,100.00
2023-02-24T03:18:38.153Z,100.00
2023-02-24T03:21:17.306Z,100.00
2023-02-24T03:23:47.022Z,100.00
2023-02-24T03:26:21.601Z,100.00
2023-02-24T03:28:58.224Z,100.00
2023-02-24T03:31:28.240Z,100.00
2023-02-24T03:34:03.700Z,100.00
2023-02-24T03:36:30.939Z,100.00
2023-02-24T03:38:58.565Z,100.00
2023-02-24T03:41:30.514Z,100.00
2023-02-24T03:43:58.886Z,100.00
2023-02-24T03:46:26.093Z,100.00
2023-02-24T03:48:58.562Z,100.00
2023-02-24T03:51:25.093Z,100.00
2023-02-24T03:54:01.908Z,100.00
2023-02-24T03:56:40.433Z,100.00
2023-02-24T03:59:23.739Z,100.00
2023-02-24T04:01:58.021Z,100.00
2023-02-24T04:04:45.975Z,100.00
2023-02-24T04:07:27.965Z,100.00
2023-02-24T04:09:57.123Z,100.00
2023-02-24T04:12:29.978Z,100.00
2023-02-24T04:15:15.522Z,100.00
2023-02-24T04:17:48.568Z,100.00
2023-02-24T04:20:20.646Z,100.00
2023-02-24T04:22:59.530Z,100.00
2023-02-24T04:25:26.824Z,100.00
2023-02-24T04:27:58.273Z,100.00
2023-02-24T04:30:26.948Z,100.00
2023-02-24T04:32:54.006Z,100.00
2023-02-24T04:35:22.235Z,100.00
2023-02-24T04:37:50.851Z,100.00
2023-02-24T04:40:18.765Z,100.00
2023-02-24T04:42:48.934Z,100.00
2023-02-24T04:45:19.440Z,100.00
2023-02-24T04:47:49.457Z,100.00
2023-02-24T04:50:25.609Z,100.00
2023-02-24T04:52:56.998Z,100.00
2023-02-24T04:55:25.289Z,100.00
2023-02-24T04:57:55.284Z,100.00
2023-02-24T05:00:22.704Z,100.00
2023-02-24T05:02:50.128Z,100.00
2023-02-24T05:05:17.788Z,100.00
2023-02-24T05:07:47.982Z,100.00
2023-02-24T05:10:15.342Z,100.00
2023-02-24T05:12:42.468Z,100.00
2023-02-24T05:15:09.163Z,100.00
2023-02-24T05:17:36.323Z,100.00
2023-02-24T05:20:21.791Z,100.00
2023-02-24T05:22:51.762Z,100.00
2023-02-24T05:25:20.072Z,100.00
2023-02-24T05:27:47.544Z,100.00
2023-02-24T05:30:14.536Z,100.00
2023-02-24T05:32:41.118Z,100.00
2023-02-24T05:35:07.767Z,100.00
2023-02-24T05:37:37.349Z,100.00
2023-02-24T05:40:04.379Z,100.00
2023-02-24T05:42:35.069Z,100.00
2023-02-24T05:45:02.037Z,100.00
2023-02-24T05:47:28.842Z,100.00
2023-02-24T05:49:56.894Z,100.00
2023-02-24T05:52:23.519Z,100.00
2023-02-24T05:54:50.469Z,100.00
2023-02-24T05:57:21.027Z,100.00
2023-02-24T05:59:50.933Z,100.00
2023-02-24T06:02:27.084Z,100.00
2023-02-24T06:04:54.285Z,100.00
2023-02-24T06:07:27.358Z,100.00
2023-02-24T06:09:57.800Z,100.00
2023-02-24T06:12:28.071Z,100.00
2023-02-24T06:14:54.788Z,100.00
2023-02-24T06:17:21.827Z,100.00
2023-02-24T06:19:50.003Z,100.00
2023-02-24T06:22:19.067Z,100.00
2023-02-24T06:24:46.000Z,100.00
2023-02-24T06:27:17.757Z,100.00
2023-02-24T06:29:45.278Z,100.00
2023-02-24T06:32:12.776Z,100.00
2023-02-24T06:34:39.598Z,100.00
2023-02-24T06:37:07.304Z,100.00
2023-02-24T06:39:36.612Z,100.00
2023-02-24T06:42:05.038Z,100.00
2023-02-24T06:44:32.606Z,100.00
2023-02-24T06:46:59.415Z,100.00
2023-02-24T06:49:26.772Z,100.00
2023-02-24T06:51:54.651Z,100.00
2023-02-24T06:54:28.340Z,100.00
2023-02-24T06:56:55.028Z,100.00
2023-02-24T06:59:28.496Z,100.00
2023-02-24T07:01:55.688Z,100.00
2023-02-24T07:04:27.779Z,100.00
2023-02-24T07:06:56.913Z,100.00
2023-02-24T07:09:24.766Z,100.00
2023-02-24T07:11:52.300Z,100.00
2023-02-24T07:14:20.747Z,100.00
2023-02-24T07:16:50.967Z,100.00
2023-02-24T07:19:17.438Z,100.00
2023-02-24T07:21:49.922Z,99.71
2023-02-24T07:24:24.721Z,100.00
2023-02-24T07:26:58.558Z,100.00
2023-02-24T07:29:26.254Z,100.00
2023-02-24T07:31:56.540Z,100.00
2023-02-24T07:34:24.939Z,100.00
2023-02-24T07:36:52.450Z,99.86
2023-02-24T07:39:19.572Z,98.27
2023-02-24T07:41:49.477Z,98.68
2023-02-24T07:44:17.291Z,96.88
2023-02-24T07:46:43.738Z,95.14
2023-02-24T07:49:12.127Z,95.75
2023-02-24T07:51:38.653Z,94.51
2023-02-24T07:54:05.306Z,93.56
2023-02-24T07:56:32.828Z,90.00
2023-02-24T07:59:11.195Z,87.22
2023-02-24T08:01:40.683Z,82.63
2023-02-24T08:04:08.156Z,78.87
2023-02-24T08:06:38.850Z,77.65
2023-02-24T08:09:19.033Z,76.06
2023-02-24T08:11:53.039Z,76.02
2023-02-24T08:14:20.490Z,75.88
2023-02-24T08:16:48.217Z,74.66
2023-02-24T08:19:20.192Z,73.26
2023-02-24T08:21:50.297Z,68.04
2023-02-24T08:24:25.290Z,73.01
2023-02-24T08:27:06.280Z,70.53
2023-02-24T08:29:40.110Z,71.37
2023-02-24T08:32:09.439Z,72.54
2023-02-24T08:34:36.467Z,71.47
2023-02-24T08:37:02.937Z,70.90
2023-02-24T08:39:30.264Z,67.41
2023-02-24T08:41:57.805Z,69.76
2023-02-24T08:44:27.012Z,68.77
2023-02-24T08:46:54.356Z,64.86
2023-02-24T08:49:24.852Z,66.15
2023-02-24T08:51:52.903Z,68.94
2023-02-24T08:54:32.079Z,69.78
2023-02-24T08:57:08.092Z,68.36
2023-02-24T08:59:39.260Z,67.39
2023-02-24T09:02:19.177Z,64.65
2023-02-24T09:04:46.712Z,64.81
2023-02-24T09:07:17.504Z,66.48
2023-02-24T09:09:44.069Z,67.24
2023-02-24T09:12:21.738Z,67.71
2023-02-24T09:14:49.903Z,61.21
2023-02-24T09:17:20.532Z,59.79
2023-02-24T09:19:50.938Z,58.42
2023-02-24T09:22:31.809Z,56.91
2023-02-24T09:25:21.803Z,55.93
2023-02-24T09:27:52.463Z,55.14
2023-02-24T09:30:35.897Z,54.67
2023-02-24T09:33:17.776Z,51.11
2023-02-24T09:35:46.771Z,51.08
2023-02-24T09:38:17.492Z,51.13
2023-02-24T09:40:52.046Z,52.27
2023-02-24T09:43:30.345Z,53.69
2023-02-24T09:46:00.803Z,53.75
2023-02-24T09:48:33.318Z,51.95
2023-02-24T09:51:06.065Z,50.50
2023-02-24T09:53:41.299Z,49.03
2023-02-24T09:56:07.880Z,46.96
2023-02-24T09:58:53.172Z,47.09
2023-02-24T10:01:23.390Z,46.36
2023-02-24T10:03:51.685Z,45.63
2023-02-24T10:06:20.986Z,46.85
2023-02-24T10:08:55.014Z,45.23
2023-02-24T10:11:35.062Z,47.70
2023-02-24T10:14:05.423Z,45.75
2023-02-24T10:16:41.543Z,46.15
2023-02-24T10:19:17.628Z,44.48
2023-02-24T10:22:03.218Z,44.49
2023-02-24T10:24:47.436Z,44.47
2023-02-24T10:27:17.409Z,43.37
2023-02-24T10:30:10.898Z,44.16
2023-02-24T10:32:58.764Z,43.51
2023-02-24T10:35:33.430Z,43.36
2023-02-24T10:38:05.288Z,43.94
2023-02-24T10:40:45.106Z,46.03
2023-02-24T10:43:17.738Z,44.80
2023-02-24T10:45:45.512Z,46.29
2023-02-24T10:48:42.790Z,47.33
2023-02-24T10:51:19.034Z,47.58
2023-02-24T10:54:08.408Z,47.70
2023-02-24T10:56:44.276Z,47.96
2023-02-24T10:59:24.620Z,48.35
2023-02-24T11:02:01.151Z,47.19
2023-02-24T11:04:32.374Z,47.60
2023-02-24T11:07:12.338Z,46.72
2023-02-24T11:09:52.645Z,45.49
2023-02-24T11:12:40.009Z,45.21
2023-02-24T11:15:44.364Z,45.29
2023-02-24T11:18:18.986Z,43.86
2023-02-24T11:20:49.837Z,45.13
2023-02-24T11:23:19.160Z,43.49
2023-02-24T11:25:51.317Z,43.16
2023-02-24T11:28:26.232Z,42.66
2023-02-24T11:30:59.176Z,43.15
2023-02-24T11:33:35.081Z,42.97
2023-02-24T11:36:02.592Z,42.01
2023-02-24T11:38:52.383Z,42.09
2023-02-24T11:41:26.040Z,42.46
2023-02-24T11:44:06.211Z,40.52
2023-02-24T11:46:41.626Z,39.62
2023-02-24T11:49:18.214Z,39.63
2023-02-24T11:51:44.675Z,40.61
2023-02-24T11:54:13.022Z,40.63
2023-02-24T11:56:43.975Z,41.56
2023-02-24T11:59:16.499Z,40.50
2023-02-24T12:02:03.849Z,40.50
2023-02-24T12:04:40.424Z,41.42
2023-02-24T12:07:10.483Z,41.55
2023-02-24T12:09:44.822Z,41.69
2023-02-24T12:12:18.456Z,41.98
2023-02-24T12:14:47.795Z,41.14
2023-02-24T12:17:32.863Z,41.45
2023-02-24T12:20:05.081Z,40.61
2023-02-24T12:22:44.667Z,42.12
2023-02-24T12:25:12.536Z,42.67
2023-02-24T12:27:51.240Z,41.66
2023-02-24T12:30:38.850Z,42.14
2023-02-24T12:33:05.508Z,42.52
2023-02-24T12:35:40.860Z,42.98
2023-02-24T12:38:18.057Z,44.90
2023-02-24T12:40:51.542Z,44.89
2023-02-24T12:43:45.173Z,43.21
2023-02-24T12:46:30.457Z,42.69
2023-02-24T12:49:15.293Z,42.86
2023-02-24T12:52:04.824Z,42.78
2023-02-24T12:54:31.381Z,42.39
2023-02-24T12:57:13.684Z,41.06
2023-02-24T12:59:40.879Z,40.13
2023-02-24T13:02:13.451Z,38.88
2023-02-24T13:04:48.714Z,38.54
2023-02-24T13:07:35.585Z,38.52
2023-02-24T13:10:20.980Z,37.90
2023-02-24T13:12:59.087Z,37.58
2023-02-24T13:15:27.430Z,36.04
2023-02-24T13:17:57.709Z,36.83
2023-02-24T13:20:25.807Z,35.88
2023-02-24T13:22:52.731Z,35.62
2023-02-24T13:25:23.603Z,35.86
2023-02-24T13:27:59.942Z,35.56
2023-02-24T13:30:28.922Z,35.50
2023-02-24T13:33:18.387Z,35.23
2023-02-24T13:35:45.805Z,33.96
2023-02-24T13:38:21.625Z,35.09
2023-02-24T13:40:48.117Z,34.55
2023-02-24T13:43:22.694Z,35.60
2023-02-24T13:45:54.924Z,35.46
2023-02-24T13:48:24.938Z,34.26
2023-02-24T13:50:54.389Z,33.12
2023-02-24T13:53:39.764Z,32.54
2023-02-24T13:56:15.428Z,32.38
2023-02-24T13:58:52.504Z,31.53
2023-02-24T14:01:20.957Z,31.48
2023-02-24T14:04:03.381Z,30.40
2023-02-24T14:06:29.901Z,33.13
2023-02-24T14:08:59.121Z,32.70
2023-02-24T14:11:29.220Z,32.46
2023-02-24T14:13:56.344Z,30.87
2023-02-24T14:16:41.831Z,31.67
2023-02-24T14:19:16.264Z,31.91
2023-02-24T14:21:50.709Z,31.12
2023-02-24T14:24:17.541Z,32.53
2023-02-24T14:26:51.333Z,31.67
2023-02-24T14:29:20.077Z,31.13
2023-02-24T14:31:47.515Z,34.01
2023-02-24T14:34:17.783Z,33.93
2023-02-24T14:36:45.344Z,34.32
2023-02-24T14:39:23.642Z,33.37
2023-02-24T14:41:51.643Z,34.09
2023-02-24T14:44:18.842Z,33.43
2023-02-24T14:46:47.281Z,31.92
2023-02-24T14:49:17.469Z,32.82
2023-02-24T14:51:44.372Z,33.89
2023-02-24T14:54:17.769Z,33.50
2023-02-24T14:56:44.312Z,34.51
2023-02-24T14:59:27.701Z,34.38
2023-02-24T15:01:55.451Z,34.51
2023-02-24T15:04:28.058Z,34.18
2023-02-24T15:06:54.572Z,34.20
2023-02-24T15:09:23.692Z,34.82
2023-02-24T15:11:50.777Z,34.17
2023-02-24T15:14:24.717Z,35.65
2023-02-24T15:16:53.036Z,36.41
2023-02-24T15:19:22.584Z,35.33
2023-02-24T15:21:49.013Z,35.85
2023-02-24T15:24:21.522Z,36.23
2023-02-24T15:27:11.428Z,37.13
2023-02-24T15:29:37.904Z,37.62
2023-02-24T15:32:07.641Z,38.13
2023-02-24T15:34:35.694Z,37.61
2023-02-24T15:37:22.383Z,38.04
2023-02-24T15:39:50.396Z,38.76
2023-02-24T15:42:16.854Z,39.11
2023-02-24T15:44:54.657Z,40.06
2023-02-24T15:47:26.065Z,40.23
2023-02-24T15:49:52.592Z,40.28
2023-02-24T15:52:21.991Z,40.16
2023-02-24T15:54:48.691Z,40.21
2023-02-24T15:57:16.497Z,40.33
2023-02-24T15:59:43.371Z,40.56
2023-02-24T16:02:14.135Z,40.86
2023-02-24T16:04:40.586Z,41.30
2023-02-24T16:07:10.929Z,41.83
2023-02-24T16:09:39.833Z,41.82
2023-02-24T16:12:12.445Z,41.85
2023-02-24T16:14:39.427Z,42.20
2023-02-24T16:17:08.792Z,42.33
2023-02-24T16:19:37.164Z,42.95
2023-02-24T16:22:03.748Z,42.97
2023-02-24T16:24:30.172Z,43.46
2023-02-24T16:26:56.723Z,43.63
2023-02-24T16:29:23.173Z,43.79
2023-02-24T16:31:49.857Z,43.97
2023-02-24T16:34:16.463Z,44.34
2023-02-24T16:36:43.748Z,44.47
2023-02-24T16:39:12.004Z,45.39
2023-02-24T16:41:38.533Z,45.13
2023-02-24T16:44:05.436Z,44.92
2023-02-24T16:46:35.928Z,45.52
2023-02-24T16:49:02.388Z,46.25
2023-02-24T16:51:29.061Z,45.59
2023-02-24T16:53:55.561Z,45.67
2023-02-24T16:56:22.313Z,45.91
2023-02-24T16:58:49.021Z,45.86
2023-02-24T17:01:20.661Z,45.95
2023-02-24T17:03:48.941Z,46.60
2023-02-24T17:06:15.433Z,46.79
2023-02-24T17:08:43.759Z,47.85
2023-02-24T17:11:12.460Z,48.55
2023-02-24T17:13:38.956Z,48.28
2023-02-24T17:16:05.475Z,48.90
2023-02-24T17:18:32.274Z,48.65
2023-02-24T17:20:58.729Z,48.96
2023-02-24T17:23:25.166Z,49.00
2023-02-24T17:25:56.740Z,49.91
2023-02-24T17:28:23.324Z,51.64
2023-02-24T17:30:49.969Z,51.60
2023-02-24T17:33:16.549Z,52.37
2023-02-24T17:35:43.217Z,53.09
2023-02-24T17:38:13.159Z,53.84
2023-02-24T17:40:40.510Z,53.44
2023-02-24T17:43:06.963Z,54.12
2023-02-24T17:45:33.946Z,54.05
2023-02-24T17:48:00.490Z,54.90
2023-02-24T17:50:27.113Z,55.10
2023-02-24T17:52:53.605Z,55.58
2023-02-24T17:55:20.137Z,56.14
2023-02-24T17:57:46.559Z,56.35
2023-02-24T18:00:13.236Z,57.61
2023-02-24T18:02:39.919Z,58.52
2023-02-24T18:05:06.797Z,59.21
2023-02-24T18:07:33.342Z,60.21
2023-02-24T18:09:59.801Z,59.15
2023-02-24T18:12:26.522Z,59.19
2023-02-24T18:15:06.901Z,58.27
2023-02-24T18:17:35.703Z,57.94
2023-02-24T18:20:02.461Z,58.60
2023-02-24T18:22:28.974Z,58.54
2023-02-24T18:24:55.453Z,58.65
2023-02-24T18:27:22.346Z,58.01
2023-02-24T18:29:48.860Z,58.92
2023-02-24T18:32:15.571Z,59.78
2023-02-24T18:34:42.232Z,58.99
2023-02-24T18:37:08.674Z,59.04
2023-02-24T18:39:35.152Z,58.95
2023-02-24T18:42:01.593Z,60.42
2023-02-24T18:44:28.218Z,60.38
2023-02-24T18:46:54.764Z,60.19
2023-02-24T18:49:21.256Z,60.13
2023-02-24T18:51:48.987Z,57.61
2023-02-24T18:54:16.180Z,54.95
2023-02-24T18:56:42.748Z,58.08
2023-02-24T18:59:09.192Z,58.85
2023-02-24T19:01:36.803Z,59.63
2023-02-24T19:04:03.921Z,60.81
2023-02-24T19:06:31.646Z,61.78
2023-02-24T19:08:59.677Z,62.40
2023-02-24T19:11:26.503Z,62.79
2023-02-24T19:13:53.283Z,61.97
2023-02-24T19:16:20.053Z,62.91
2023-02-24T19:18:49.750Z,63.15
2023-02-24T19:21:16.235Z,63.37
2023-02-24T19:23:42.688Z,61.46
2023-02-24T19:26:19.591Z,60.96
2023-02-24T19:28:46.230Z,61.80
2023-02-24T19:31:14.530Z,61.35
2023-02-24T19:33:41.106Z,60.17
2023-02-24T19:36:07.916Z,59.29
2023-02-24T19:38:34.426Z,59.27
2023-02-24T19:41:01.002Z,59.07
2023-02-24T19:43:27.450Z,59.11
2023-02-24T19:45:54.153Z,59.64
2023-02-24T19:48:20.665Z,59.95
2023-02-24T19:50:47.225Z,60.79
2023-02-24T19:53:13.704Z,57.71
2023-02-24T19:55:40.131Z,59.05
2023-02-24T19:58:06.628Z,59.55
2023-02-24T20:00:33.077Z,60.76
2023-02-24T20:02:59.669Z,62.84
2023-02-24T20:05:26.114Z,63.30
2023-02-24T20:07:52.543Z,63.93
2023-02-24T20:10:19.144Z,63.96
2023-02-24T20:12:45.606Z,64.17
2023-02-24T20:15:12.564Z,64.88
2023-02-24T20:17:39.177Z,64.71
2023-02-24T20:20:05.956Z,65.25
2023-02-24T20:22:32.447Z,66.14
2023-02-24T20:24:59.028Z,65.61
2023-02-24T20:27:25.571Z,66.02
2023-02-24T20:29:53.624Z,64.94
2023-02-24T20:32:20.307Z,64.99
2023-02-24T20:34:46.897Z,65.85
2023-02-24T20:37:13.372Z,65.56
2023-02-24T20:39:39.950Z,65.71
2023-02-24T20:42:06.438Z,67.01
2023-02-24T20:44:33.339Z,68.87
2023-02-24T20:46:59.947Z,69.49
2023-02-24T20:49:27.229Z,69.48
2023-02-24T20:51:53.778Z,68.85
2023-02-24T20:54:20.315Z,70.28
2023-02-24T20:56:47.021Z,70.00
2023-02-24T20:59:15.142Z,67.18
2023-02-24T21:01:42.212Z,65.23
2023-02-24T21:04:08.896Z,64.12
2023-02-24T21:06:35.976Z,65.33
2023-02-24T21:09:02.643Z,69.48
2023-02-24T21:11:30.226Z,71.77
2023-02-24T21:13:57.117Z,71.04
2023-02-24T21:16:24.430Z,71.80
2023-02-24T21:18:53.033Z,71.53
2023-02-24T21:21:19.856Z,71.79
2023-02-24T21:23:47.257Z,70.51
2023-02-24T21:26:14.333Z,70.31
2023-02-24T21:28:40.880Z,70.31
2023-02-24T21:31:12.178Z,71.76
2023-02-24T21:33:39.187Z,71.62
2023-02-24T21:36:07.123Z,69.62
2023-02-24T21:38:34.169Z,70.52
2023-02-24T21:41:05.411Z,71.04
2023-02-24T21:43:32.308Z,70.83
2023-02-24T21:46:02.788Z,71.42
2023-02-24T21:48:29.303Z,72.23
2023-02-24T21:50:59.518Z,71.56
2023-02-24T21:53:29.972Z,72.39
2023-02-24T21:56:10.825Z,74.01
2023-02-24T21:58:39.132Z,74.05
2023-02-24T22:01:09.893Z,74.17
2023-02-24T22:03:36.514Z,73.92
2023-02-24T22:06:03.163Z,74.63
2023-02-24T22:08:29.655Z,72.20
2023-02-24T22:11:00.170Z,73.43
2023-02-24T22:13:27.222Z,74.04
2023-02-24T22:15:53.895Z,71.12
2023-02-24T22:18:21.255Z,71.94
2023-02-24T22:20:47.851Z,71.25
2023-02-24T22:23:14.313Z,71.36
2023-02-24T22:25:40.784Z,72.73
2023-02-24T22:28:07.319Z,74.97
2023-02-24T22:30:33.804Z,74.40
2023-02-24T22:33:00.283Z,72.52
2023-02-24T22:35:26.721Z,73.82
2023-02-24T22:37:53.646Z,73.83
2023-02-24T22:40:20.876Z,74.09
2023-02-24T22:42:47.479Z,75.88
2023-02-24T22:45:13.963Z,75.77
2023-02-24T22:47:40.512Z,75.69
2023-02-24T22:50:07.482Z,76.09
2023-02-24T22:52:33.930Z,77.01
2023-02-24T22:55:00.615Z,77.59
2023-02-24T22:57:29.097Z,76.93
2023-02-24T22:59:56.030Z,76.65
2023-02-24T23:02:22.508Z,73.81
2023-02-24T23:04:49.007Z,75.64
2023-02-24T23:07:15.448Z,76.83
2023-02-24T23:09:52.363Z,77.02
2023-02-24T23:12:19.999Z,76.76
2023-02-24T23:14:46.715Z,77.33
2023-02-24T23:17:13.175Z,75.45
2023-02-24T23:19:39.617Z,76.12
2023-02-24T23:22:07.787Z,78.21
2023-02-24T23:24:34.473Z,78.14
2023-02-24T23:27:00.952Z,78.11
2023-02-24T23:29:27.742Z,74.15
2023-02-24T23:31:54.400Z,76.95
2023-02-24T23:34:21.227Z,77.74
2023-02-24T23:36:47.786Z,79.89
2023-02-24T23:39:15.944Z,80.54
2023-02-24T23:41:42.498Z,79.97
2023-02-24T23:44:09.375Z,79.53
2023-02-24T23:46:36.712Z,75.82
2023-02-24T23:49:03.655Z,79.58
2023-02-24T23:51:45.693Z,80.07
2023-02-24T23:54:14.637Z,80.95
2023-02-24T23:56:41.235Z,81.27
2023-02-24T23:59:07.741Z,81.68
